sensor_id;sensor_type;location;lat;lon;timestamp;P1;durP1;ratioP1;P2;durP2;ratioP2
9294;SDS011;4686;44.496;11.324;2023-04-05T00:00:11;9.63;;;8.83;;
9294;SDS011;4686;44.496;11.324;2023-04-05T00:02:39;10.07;;;9.00;;
9294;SDS011;4686;44.496;11.324;2023-04-05T00:05:07;12.10;;;9.13;;
9294;SDS011;4686;44.496;11.324;2023-04-05T00:07:37;14.73;;;8.90;;
9294;SDS011;4686;44.496;11.324;2023-04-05T00:10:04;10.10;;;9.20;;
9294;SDS011;4686;44.496;11.324;2023-04-05T00:12:32;9.10;;;8.40;;
9294;SDS011;4686;44.496;11.324;2023-04-05T00:14:59;9.20;;;8.40;;
9294;SDS011;4686;44.496;11.324;2023-04-05T00:17:26;9.40;;;8.63;;
9294;SDS011;4686;44.496;11.324;2023-04-05T00:19:55;10.10;;;9.20;;
9294;SDS011;4686;44.496;11.324;2023-04-05T00:22:22;9.60;;;8.70;;
9294;SDS011;4686;44.496;11.324;2023-04-05T00:24:52;9.30;;;8.50;;
9294;SDS011;4686;44.496;11.324;2023-04-05T00:27:19;9.83;;;9.03;;
9294;SDS011;4686;44.496;11.324;2023-04-05T00:29:46;9.60;;;8.77;;
9294;SDS011;4686;44.496;11.324;2023-04-05T00:32:13;9.50;;;8.70;;
9294;SDS011;4686;44.496;11.324;2023-04-05T00:34:43;14.13;;;8.93;;
9294;SDS011;4686;44.496;11.324;2023-04-05T00:37:10;9.60;;;8.80;;
9294;SDS011;4686;44.496;11.324;2023-04-05T00:39:37;10.70;;;9.60;;
9294;SDS011;4686;44.496;11.324;2023-04-05T00:42:06;9.63;;;8.73;;
9294;SDS011;4686;44.496;11.324;2023-04-05T00:44:34;9.70;;;8.50;;
9294;SDS011;4686;44.496;11.324;2023-04-05T00:47:01;9.43;;;8.50;;
9294;SDS011;4686;44.496;11.324;2023-04-05T00:49:29;9.10;;;8.40;;
9294;SDS011;4686;44.496;11.324;2023-04-05T00:51:58;9.03;;;8.43;;
9294;SDS011;4686;44.496;11.324;2023-04-05T00:54:25;8.90;;;8.20;;
9294;SDS011;4686;44.496;11.324;2023-04-05T00:56:54;10.07;;;9.10;;
9294;SDS011;4686;44.496;11.324;2023-04-05T00:59:25;9.23;;;8.53;;
9294;SDS011;4686;44.496;11.324;2023-04-05T01:01:54;9.60;;;8.90;;
9294;SDS011;4686;44.496;11.324;2023-04-05T01:04:22;10.27;;;9.23;;
9294;SDS011;4686;44.496;11.324;2023-04-05T01:06:55;9.90;;;9.00;;
9294;SDS011;4686;44.496;11.324;2023-04-05T01:09:28;9.57;;;8.87;;
9294;SDS011;4686;44.496;11.324;2023-04-05T01:12:00;9.50;;;8.70;;
9294;SDS011;4686;44.496;11.324;2023-04-05T01:14:30;9.30;;;8.50;;
9294;SDS011;4686;44.496;11.324;2023-04-05T01:16:57;8.97;;;8.27;;
9294;SDS011;4686;44.496;11.324;2023-04-05T01:19:26;9.27;;;8.57;;
9294;SDS011;4686;44.496;11.324;2023-04-05T01:21:59;9.83;;;9.03;;
9294;SDS011;4686;44.496;11.324;2023-04-05T01:24:41;9.20;;;8.50;;
9294;SDS011;4686;44.496;11.324;2023-04-05T01:27:11;9.00;;;8.20;;
9294;SDS011;4686;44.496;11.324;2023-04-05T01:29:49;9.70;;;8.90;;
9294;SDS011;4686;44.496;11.324;2023-04-05T01:32:22;9.87;;;9.03;;
9294;SDS011;4686;44.496;11.324;2023-04-05T01:34:52;9.93;;;8.93;;
9294;SDS011;4686;44.496;11.324;2023-04-05T01:37:22;10.10;;;9.30;;
9294;SDS011;4686;44.496;11.324;2023-04-05T01:39:50;9.00;;;8.40;;
9294;SDS011;4686;44.496;11.324;2023-04-05T01:42:21;9.13;;;8.40;;
9294;SDS011;4686;44.496;11.324;2023-04-05T01:44:50;9.40;;;8.57;;
9294;SDS011;4686;44.496;11.324;2023-04-05T01:47:18;9.10;;;8.50;;
9294;SDS011;4686;44.496;11.324;2023-04-05T01:49:45;8.90;;;8.10;;
9294;SDS011;4686;44.496;11.324;2023-04-05T01:52:13;8.90;;;8.10;;
9294;SDS011;4686;44.496;11.324;2023-04-05T01:54:40;8.80;;;8.10;;
9294;SDS011;4686;44.496;11.324;2023-04-05T01:57:08;9.00;;;8.10;;
9294;SDS011;4686;44.496;11.324;2023-04-05T01:59:35;8.90;;;8.30;;
9294;SDS011;4686;44.496;11.324;2023-04-05T02:02:04;9.27;;;8.43;;
9294;SDS011;4686;44.496;11.324;2023-04-05T02:04:31;9.27;;;8.47;;
9294;SDS011;4686;44.496;11.324;2023-04-05T02:06:58;10.00;;;9.20;;
9294;SDS011;4686;44.496;11.324;2023-04-05T02:09:27;9.57;;;8.70;;
9294;SDS011;4686;44.496;11.324;2023-04-05T02:11:54;9.90;;;9.03;;
9294;SDS011;4686;44.496;11.324;2023-04-05T02:14:23;9.60;;;8.63;;
9294;SDS011;4686;44.496;11.324;2023-04-05T02:16:50;9.43;;;8.63;;
9294;SDS011;4686;44.496;11.324;2023-04-05T02:19:21;9.50;;;8.70;;
9294;SDS011;4686;44.496;11.324;2023-04-05T02:21:50;10.00;;;9.00;;
9294;SDS011;4686;44.496;11.324;2023-04-05T02:24:19;13.07;;;11.50;;
9294;SDS011;4686;44.496;11.324;2023-04-05T02:26:46;10.97;;;10.03;;
9294;SDS011;4686;44.496;11.324;2023-04-05T02:29:13;12.40;;;11.10;;
9294;SDS011;4686;44.496;11.324;2023-04-05T02:31:40;12.00;;;10.90;;
9294;SDS011;4686;44.496;11.324;2023-04-05T02:34:07;39.33;;;24.67;;
9294;SDS011;4686;44.496;11.324;2023-04-05T02:36:37;51.00;;;31.43;;
9294;SDS011;4686;44.496;11.324;2023-04-05T02:39:05;60.73;;;35.03;;
9294;SDS011;4686;44.496;11.324;2023-04-05T02:41:33;16.10;;;12.90;;
9294;SDS011;4686;44.496;11.324;2023-04-05T02:44:00;45.13;;;20.80;;
9294;SDS011;4686;44.496;11.324;2023-04-05T02:46:27;13.03;;;11.60;;
9294;SDS011;4686;44.496;11.324;2023-04-05T02:48:54;13.80;;;11.03;;
9294;SDS011;4686;44.496;11.324;2023-04-05T02:51:22;9.97;;;9.27;;
9294;SDS011;4686;44.496;11.324;2023-04-05T02:53:50;9.13;;;8.43;;
9294;SDS011;4686;44.496;11.324;2023-04-05T02:56:18;9.90;;;9.00;;
9294;SDS011;4686;44.496;11.324;2023-04-05T02:58:46;9.73;;;8.73;;
9294;SDS011;4686;44.496;11.324;2023-04-05T03:01:13;8.97;;;8.37;;
9294;SDS011;4686;44.496;11.324;2023-04-05T03:03:42;12.17;;;9.30;;
9294;SDS011;4686;44.496;11.324;2023-04-05T03:06:09;9.10;;;8.40;;
9294;SDS011;4686;44.496;11.324;2023-04-05T03:08:37;9.60;;;8.80;;
9294;SDS011;4686;44.496;11.324;2023-04-05T03:11:09;9.13;;;8.47;;
9294;SDS011;4686;44.496;11.324;2023-04-05T03:13:37;9.20;;;8.60;;
9294;SDS011;4686;44.496;11.324;2023-04-05T03:16:05;10.30;;;9.20;;
9294;SDS011;4686;44.496;11.324;2023-04-05T03:18:32;10.73;;;9.90;;
9294;SDS011;4686;44.496;11.324;2023-04-05T03:20:59;9.03;;;8.43;;
9294;SDS011;4686;44.496;11.324;2023-04-05T03:23:29;9.20;;;8.50;;
9294;SDS011;4686;44.496;11.324;2023-04-05T03:25:57;10.27;;;9.30;;
9294;SDS011;4686;44.496;11.324;2023-04-05T03:28:26;10.70;;;9.20;;
9294;SDS011;4686;44.496;11.324;2023-04-05T03:30:53;9.70;;;8.97;;
9294;SDS011;4686;44.496;11.324;2023-04-05T03:33:21;9.33;;;8.43;;
9294;SDS011;4686;44.496;11.324;2023-04-05T03:35:48;9.40;;;8.60;;
9294;SDS011;4686;44.496;11.324;2023-04-05T03:38:15;9.43;;;8.63;;
9294;SDS011;4686;44.496;11.324;2023-04-05T03:40:43;10.33;;;9.30;;
9294;SDS011;4686;44.496;11.324;2023-04-05T03:43:10;10.03;;;9.13;;
9294;SDS011;4686;44.496;11.324;2023-04-05T03:45:39;12.23;;;9.33;;
9294;SDS011;4686;44.496;11.324;2023-04-05T03:48:06;10.17;;;9.20;;
9294;SDS011;4686;44.496;11.324;2023-04-05T03:50:33;9.17;;;8.33;;
9294;SDS011;4686;44.496;11.324;2023-04-05T03:53:00;10.53;;;9.43;;
9294;SDS011;4686;44.496;11.324;2023-04-05T03:55:28;12.43;;;9.60;;
9294;SDS011;4686;44.496;11.324;2023-04-05T03:57:55;9.40;;;8.70;;
9294;SDS011;4686;44.496;11.324;2023-04-05T04:00:22;9.97;;;9.07;;
9294;SDS011;4686;44.496;11.324;2023-04-05T04:02:51;11.20;;;9.70;;
9294;SDS011;4686;44.496;11.324;2023-04-05T04:05:18;10.03;;;8.80;;
9294;SDS011;4686;44.496;11.324;2023-04-05T04:07:46;10.00;;;9.23;;
9294;SDS011;4686;44.496;11.324;2023-04-05T04:10:14;10.40;;;8.60;;
9294;SDS011;4686;44.496;11.324;2023-04-05T04:12:42;9.73;;;8.83;;
9294;SDS011;4686;44.496;11.324;2023-04-05T04:15:10;9.67;;;8.87;;
9294;SDS011;4686;44.496;11.324;2023-04-05T04:17:37;10.13;;;9.13;;
9294;SDS011;4686;44.496;11.324;2023-04-05T04:20:07;11.73;;;9.80;;
9294;SDS011;4686;44.496;11.324;2023-04-05T04:22:35;10.77;;;9.83;;
9294;SDS011;4686;44.496;11.324;2023-04-05T04:25:04;10.37;;;9.37;;
9294;SDS011;4686;44.496;11.324;2023-04-05T04:27:34;10.90;;;9.90;;
9294;SDS011;4686;44.496;11.324;2023-04-05T04:30:01;10.87;;;9.97;;
9294;SDS011;4686;44.496;11.324;2023-04-05T04:32:29;10.70;;;9.63;;
9294;SDS011;4686;44.496;11.324;2023-04-05T04:35:12;9.83;;;8.93;;
9294;SDS011;4686;44.496;11.324;2023-04-05T04:37:42;10.37;;;9.50;;
9294;SDS011;4686;44.496;11.324;2023-04-05T04:40:11;9.53;;;8.80;;
9294;SDS011;4686;44.496;11.324;2023-04-05T04:42:41;9.73;;;8.80;;
9294;SDS011;4686;44.496;11.324;2023-04-05T04:45:10;13.23;;;9.57;;
9294;SDS011;4686;44.496;11.324;2023-04-05T04:47:40;9.97;;;9.17;;
9294;SDS011;4686;44.496;11.324;2023-04-05T04:50:07;10.63;;;9.63;;
9294;SDS011;4686;44.496;11.324;2023-04-05T04:52:37;10.13;;;9.23;;
9294;SDS011;4686;44.496;11.324;2023-04-05T04:55:04;10.97;;;9.87;;
9294;SDS011;4686;44.496;11.324;2023-04-05T04:57:32;14.23;;;9.50;;
9294;SDS011;4686;44.496;11.324;2023-04-05T04:59:59;10.60;;;9.60;;
9294;SDS011;4686;44.496;11.324;2023-04-05T05:02:31;10.60;;;9.50;;
9294;SDS011;4686;44.496;11.324;2023-04-05T05:04:59;10.43;;;8.90;;
9294;SDS011;4686;44.496;11.324;2023-04-05T05:07:29;10.07;;;9.07;;
9294;SDS011;4686;44.496;11.324;2023-04-05T05:09:58;10.27;;;9.47;;
9294;SDS011;4686;44.496;11.324;2023-04-05T05:12:25;11.67;;;10.57;;
9294;SDS011;4686;44.496;11.324;2023-04-05T05:14:54;11.47;;;9.17;;
9294;SDS011;4686;44.496;11.324;2023-04-05T05:17:21;10.57;;;9.47;;
9294;SDS011;4686;44.496;11.324;2023-04-05T05:19:48;9.93;;;9.00;;
9294;SDS011;4686;44.496;11.324;2023-04-05T05:22:16;11.57;;;10.37;;
9294;SDS011;4686;44.496;11.324;2023-04-05T05:24:43;12.47;;;11.17;;
9294;SDS011;4686;44.496;11.324;2023-04-05T05:27:13;12.50;;;9.57;;
9294;SDS011;4686;44.496;11.324;2023-04-05T05:29:40;12.23;;;11.07;;
9294;SDS011;4686;44.496;11.324;2023-04-05T05:32:08;12.10;;;10.97;;
9294;SDS011;4686;44.496;11.324;2023-04-05T05:34:38;10.20;;;9.47;;
9294;SDS011;4686;44.496;11.324;2023-04-05T05:37:08;15.23;;;10.00;;
9294;SDS011;4686;44.496;11.324;2023-04-05T05:39:36;12.30;;;9.53;;
9294;SDS011;4686;44.496;11.324;2023-04-05T05:42:03;10.80;;;9.80;;
9294;SDS011;4686;44.496;11.324;2023-04-05T05:44:32;10.80;;;9.90;;
9294;SDS011;4686;44.496;11.324;2023-04-05T05:47:00;10.30;;;9.40;;
9294;SDS011;4686;44.496;11.324;2023-04-05T05:49:27;10.93;;;10.00;;
9294;SDS011;4686;44.496;11.324;2023-04-05T05:51:55;10.33;;;9.37;;
9294;SDS011;4686;44.496;11.324;2023-04-05T05:54:22;10.60;;;9.60;;
9294;SDS011;4686;44.496;11.324;2023-04-05T05:56:50;11.67;;;9.47;;
9294;SDS011;4686;44.496;11.324;2023-04-05T05:59:17;11.67;;;10.77;;
9294;SDS011;4686;44.496;11.324;2023-04-05T06:01:46;10.00;;;9.00;;
9294;SDS011;4686;44.496;11.324;2023-04-05T06:04:15;10.90;;;9.80;;
9294;SDS011;4686;44.496;11.324;2023-04-05T06:06:43;13.60;;;5.75;;
9294;SDS011;4686;44.496;11.324;2023-04-05T06:09:12;10.47;;;9.47;;
9294;SDS011;4686;44.496;11.324;2023-04-05T06:11:39;14.83;;;10.60;;
9294;SDS011;4686;44.496;11.324;2023-04-05T06:14:07;9.70;;;8.90;;
9294;SDS011;4686;44.496;11.324;2023-04-05T06:16:34;10.23;;;8.97;;
9294;SDS011;4686;44.496;11.324;2023-04-05T06:19:02;10.27;;;9.37;;
9294;SDS011;4686;44.496;11.324;2023-04-05T06:21:30;14.03;;;10.10;;
9294;SDS011;4686;44.496;11.324;2023-04-05T06:24:00;10.90;;;9.47;;
9294;SDS011;4686;44.496;11.324;2023-04-05T06:26:27;10.40;;;9.43;;
9294;SDS011;4686;44.496;11.324;2023-04-05T06:28:55;10.43;;;9.43;;
9294;SDS011;4686;44.496;11.324;2023-04-05T06:31:25;12.80;;;9.87;;
9294;SDS011;4686;44.496;11.324;2023-04-05T06:33:52;10.20;;;9.20;;
9294;SDS011;4686;44.496;11.324;2023-04-05T06:36:21;10.67;;;9.67;;
9294;SDS011;4686;44.496;11.324;2023-04-05T06:38:48;10.83;;;9.83;;
9294;SDS011;4686;44.496;11.324;2023-04-05T06:41:17;12.23;;;10.90;;
9294;SDS011;4686;44.496;11.324;2023-04-05T06:43:44;12.77;;;11.47;;
9294;SDS011;4686;44.496;11.324;2023-04-05T06:46:12;12.70;;;11.40;;
9294;SDS011;4686;44.496;11.324;2023-04-05T06:48:39;16.10;;;11.33;;
9294;SDS011;4686;44.496;11.324;2023-04-05T06:51:08;10.83;;;9.83;;
9294;SDS011;4686;44.496;11.324;2023-04-05T06:53:37;12.33;;;11.17;;
9294;SDS011;4686;44.496;11.324;2023-04-05T06:56:04;19.80;;;15.97;;
9294;SDS011;4686;44.496;11.324;2023-04-05T06:58:31;14.70;;;13.20;;
9294;SDS011;4686;44.496;11.324;2023-04-05T07:00:59;19.00;;;15.30;;
9294;SDS011;4686;44.496;11.324;2023-04-05T07:03:26;14.90;;;10.40;;
9294;SDS011;4686;44.496;11.324;2023-04-05T07:05:55;11.73;;;10.00;;
9294;SDS011;4686;44.496;11.324;2023-04-05T07:08:23;10.43;;;9.57;;
9294;SDS011;4686;44.496;11.324;2023-04-05T07:10:52;11.13;;;9.97;;
9294;SDS011;4686;44.496;11.324;2023-04-05T07:13:20;11.00;;;9.60;;
9294;SDS011;4686;44.496;11.324;2023-04-05T07:15:48;10.13;;;9.13;;
9294;SDS011;4686;44.496;11.324;2023-04-05T07:18:15;10.60;;;9.50;;
9294;SDS011;4686;44.496;11.324;2023-04-05T07:20:45;11.90;;;10.00;;
9294;SDS011;4686;44.496;11.324;2023-04-05T07:23:13;12.63;;;10.20;;
9294;SDS011;4686;44.496;11.324;2023-04-05T07:25:40;11.40;;;10.23;;
9294;SDS011;4686;44.496;11.324;2023-04-05T07:28:09;10.97;;;9.97;;
9294;SDS011;4686;44.496;11.324;2023-04-05T07:30:36;10.40;;;9.47;;
9294;SDS011;4686;44.496;11.324;2023-04-05T07:33:03;11.30;;;10.30;;
9294;SDS011;4686;44.496;11.324;2023-04-05T07:35:31;13.03;;;10.23;;
9294;SDS011;4686;44.496;11.324;2023-04-05T07:37:58;13.03;;;10.20;;
9294;SDS011;4686;44.496;11.324;2023-04-05T07:40:25;11.13;;;10.13;;
9294;SDS011;4686;44.496;11.324;2023-04-05T07:42:53;11.50;;;10.40;;
9294;SDS011;4686;44.496;11.324;2023-04-05T07:45:22;11.30;;;10.10;;
9294;SDS011;4686;44.496;11.324;2023-04-05T07:47:49;10.70;;;9.73;;
9294;SDS011;4686;44.496;11.324;2023-04-05T07:50:16;11.13;;;10.03;;
9294;SDS011;4686;44.496;11.324;2023-04-05T07:52:43;11.23;;;10.00;;
9294;SDS011;4686;44.496;11.324;2023-04-05T07:55:11;11.03;;;9.80;;
9294;SDS011;4686;44.496;11.324;2023-04-05T07:57:38;11.13;;;9.93;;
9294;SDS011;4686;44.496;11.324;2023-04-05T08:00:06;17.03;;;11.17;;
9294;SDS011;4686;44.496;11.324;2023-04-05T08:02:38;12.27;;;10.97;;
9294;SDS011;4686;44.496;11.324;2023-04-05T08:05:07;12.07;;;10.87;;
9294;SDS011;4686;44.496;11.324;2023-04-05T08:07:34;11.80;;;10.60;;
9294;SDS011;4686;44.496;11.324;2023-04-05T08:10:02;14.00;;;11.40;;
9294;SDS011;4686;44.496;11.324;2023-04-05T08:12:30;17.40;;;12.60;;
9294;SDS011;4686;44.496;11.324;2023-04-05T08:14:57;11.63;;;10.60;;
9294;SDS011;4686;44.496;11.324;2023-04-05T08:17:25;17.47;;;11.80;;
9294;SDS011;4686;44.496;11.324;2023-04-05T08:19:54;17.67;;;12.07;;
9294;SDS011;4686;44.496;11.324;2023-04-05T08:22:21;15.67;;;11.63;;
9294;SDS011;4686;44.496;11.324;2023-04-05T08:24:49;16.30;;;11.70;;
9294;SDS011;4686;44.496;11.324;2023-04-05T08:27:16;18.33;;;12.83;;
9294;SDS011;4686;44.496;11.324;2023-04-05T08:29:43;11.80;;;10.23;;
9294;SDS011;4686;44.496;11.324;2023-04-05T08:32:11;11.60;;;10.50;;
9294;SDS011;4686;44.496;11.324;2023-04-05T08:34:38;11.23;;;10.23;;
9294;SDS011;4686;44.496;11.324;2023-04-05T08:37:07;13.00;;;10.70;;
9294;SDS011;4686;44.496;11.324;2023-04-05T08:39:34;11.23;;;10.23;;
9294;SDS011;4686;44.496;11.324;2023-04-05T08:42:02;11.93;;;10.80;;
9294;SDS011;4686;44.496;11.324;2023-04-05T08:44:30;15.17;;;10.87;;
9294;SDS011;4686;44.496;11.324;2023-04-05T08:46:57;14.27;;;10.57;;
9294;SDS011;4686;44.496;11.324;2023-04-05T08:49:25;11.77;;;10.80;;
9294;SDS011;4686;44.496;11.324;2023-04-05T08:51:53;11.67;;;10.57;;
9294;SDS011;4686;44.496;11.324;2023-04-05T08:54:22;18.20;;;12.50;;
9294;SDS011;4686;44.496;11.324;2023-04-05T08:56:49;12.77;;;11.20;;
9294;SDS011;4686;44.496;11.324;2023-04-05T08:59:18;10.77;;;9.77;;
9294;SDS011;4686;44.496;11.324;2023-04-05T09:01:46;11.47;;;9.63;;
9294;SDS011;4686;44.496;11.324;2023-04-05T09:04:16;18.10;;;10.70;;
9294;SDS011;4686;44.496;11.324;2023-04-05T09:06:44;10.80;;;9.87;;
9294;SDS011;4686;44.496;11.324;2023-04-05T09:09:11;11.17;;;9.87;;
9294;SDS011;4686;44.496;11.324;2023-04-05T09:11:41;10.30;;;9.03;;
9294;SDS011;4686;44.496;11.324;2023-04-05T09:14:09;10.43;;;9.37;;
9294;SDS011;4686;44.496;11.324;2023-04-05T09:16:36;9.90;;;8.93;;
9294;SDS011;4686;44.496;11.324;2023-04-05T09:19:04;10.33;;;9.33;;
9294;SDS011;4686;44.496;11.324;2023-04-05T09:24:13;13.77;;;10.30;;
9294;SDS011;4686;44.496;11.324;2023-04-05T09:26:42;11.27;;;8.87;;
9294;SDS011;4686;44.496;11.324;2023-04-05T09:29:19;14.23;;;9.30;;
9294;SDS011;4686;44.496;11.324;2023-04-05T09:31:54;11.87;;;9.50;;
9294;SDS011;4686;44.496;11.324;2023-04-05T09:34:21;9.80;;;9.00;;
9294;SDS011;4686;44.496;11.324;2023-04-05T09:36:50;10.23;;;9.30;;
9294;SDS011;4686;44.496;11.324;2023-04-05T09:39:17;12.07;;;9.70;;
9294;SDS011;4686;44.496;11.324;2023-04-05T09:42:04;11.37;;;9.10;;
9294;SDS011;4686;44.496;11.324;2023-04-05T09:47:18;9.10;;;8.20;;
9294;SDS011;4686;44.496;11.324;2023-04-05T09:49:45;9.30;;;8.37;;
9294;SDS011;4686;44.496;11.324;2023-04-05T09:52:18;8.67;;;7.87;;
9294;SDS011;4686;44.496;11.324;2023-04-05T09:54:46;9.37;;;8.20;;
9294;SDS011;4686;44.496;11.324;2023-04-05T09:57:15;8.10;;;7.43;;
9294;SDS011;4686;44.496;11.324;2023-04-05T09:59:43;7.40;;;6.90;;
9294;SDS011;4686;44.496;11.324;2023-04-05T10:02:10;7.77;;;7.27;;
9294;SDS011;4686;44.496;11.324;2023-04-05T10:04:38;8.17;;;7.57;;
9294;SDS011;4686;44.496;11.324;2023-04-05T10:07:06;8.87;;;7.50;;
9294;SDS011;4686;44.496;11.324;2023-04-05T10:09:33;8.73;;;7.93;;
9294;SDS011;4686;44.496;11.324;2023-04-05T10:12:00;7.30;;;6.70;;
9294;SDS011;4686;44.496;11.324;2023-04-05T10:14:43;9.13;;;7.03;;
9294;SDS011;4686;44.496;11.324;2023-04-05T10:17:11;12.17;;;9.00;;
9294;SDS011;4686;44.496;11.324;2023-04-05T10:19:42;10.37;;;6.90;;
9294;SDS011;4686;44.496;11.324;2023-04-05T10:22:12;9.20;;;8.30;;
9294;SDS011;4686;44.496;11.324;2023-04-05T10:24:44;8.30;;;7.60;;
9294;SDS011;4686;44.496;11.324;2023-04-05T10:27:13;7.47;;;6.50;;
9294;SDS011;4686;44.496;11.324;2023-04-05T10:29:45;12.13;;;7.87;;
9294;SDS011;4686;44.496;11.324;2023-04-05T10:32:17;7.40;;;6.83;;
9294;SDS011;4686;44.496;11.324;2023-04-05T10:34:47;7.90;;;7.03;;
9294;SDS011;4686;44.496;11.324;2023-04-05T10:37:21;12.93;;;10.30;;
9294;SDS011;4686;44.496;11.324;2023-04-05T10:39:51;7.47;;;6.77;;
9294;SDS011;4686;44.496;11.324;2023-04-05T10:42:19;8.63;;;7.87;;
9294;SDS011;4686;44.496;11.324;2023-04-05T10:44:49;10.83;;;8.10;;
9294;SDS011;4686;44.496;11.324;2023-04-05T10:47:18;12.80;;;9.77;;
9294;SDS011;4686;44.496;11.324;2023-04-05T10:49:50;9.97;;;8.10;;
9294;SDS011;4686;44.496;11.324;2023-04-05T10:52:21;7.83;;;7.13;;
9294;SDS011;4686;44.496;11.324;2023-04-05T10:54:48;8.40;;;7.30;;
9294;SDS011;4686;44.496;11.324;2023-04-05T10:57:16;6.67;;;5.87;;
9294;SDS011;4686;44.496;11.324;2023-04-05T10:59:49;6.93;;;6.10;;
9294;SDS011;4686;44.496;11.324;2023-04-05T11:02:18;6.93;;;6.23;;
9294;SDS011;4686;44.496;11.324;2023-04-05T11:04:45;7.60;;;6.90;;
9294;SDS011;4686;44.496;11.324;2023-04-05T11:07:13;7.67;;;7.03;;
9294;SDS011;4686;44.496;11.324;2023-04-05T11:09:49;8.50;;;7.57;;
9294;SDS011;4686;44.496;11.324;2023-04-05T11:12:17;6.60;;;6.00;;
9294;SDS011;4686;44.496;11.324;2023-04-05T11:14:44;7.10;;;6.50;;
9294;SDS011;4686;44.496;11.324;2023-04-05T11:17:25;6.47;;;5.97;;
9294;SDS011;4686;44.496;11.324;2023-04-05T11:19:59;7.20;;;6.50;;
9294;SDS011;4686;44.496;11.324;2023-04-05T11:22:28;8.00;;;7.20;;
9294;SDS011;4686;44.496;11.324;2023-04-05T11:24:56;7.50;;;6.87;;
9294;SDS011;4686;44.496;11.324;2023-04-05T11:27:23;7.23;;;6.33;;
9294;SDS011;4686;44.496;11.324;2023-04-05T11:29:52;8.20;;;7.37;;
9294;SDS011;4686;44.496;11.324;2023-04-05T11:32:20;6.63;;;6.13;;
9294;SDS011;4686;44.496;11.324;2023-04-05T11:34:58;7.97;;;7.20;;
9294;SDS011;4686;44.496;11.324;2023-04-05T11:42:58;12.13;;;8.93;;
9294;SDS011;4686;44.496;11.324;2023-04-05T11:45:25;7.50;;;6.97;;
9294;SDS011;4686;44.496;11.324;2023-04-05T11:47:52;5.80;;;5.40;;
9294;SDS011;4686;44.496;11.324;2023-04-05T11:50:21;9.70;;;8.70;;
9294;SDS011;4686;44.496;11.324;2023-04-05T11:55:31;10.03;;;7.53;;
9294;SDS011;4686;44.496;11.324;2023-04-05T11:58:00;8.67;;;7.20;;
9294;SDS011;4686;44.496;11.324;2023-04-05T12:00:27;6.83;;;6.10;;
9294;SDS011;4686;44.496;11.324;2023-04-05T12:02:55;7.70;;;6.17;;
9294;SDS011;4686;44.496;11.324;2023-04-05T12:05:24;8.43;;;5.63;;
9294;SDS011;4686;44.496;11.324;2023-04-05T12:07:51;7.57;;;6.87;;
9294;SDS011;4686;44.496;11.324;2023-04-05T12:10:19;8.40;;;7.50;;
9294;SDS011;4686;44.496;11.324;2023-04-05T12:12:47;11.53;;;8.00;;
9294;SDS011;4686;44.496;11.324;2023-04-05T12:15:16;8.00;;;6.70;;
9294;SDS011;4686;44.496;11.324;2023-04-05T12:17:44;7.73;;;7.00;;
9294;SDS011;4686;44.496;11.324;2023-04-05T12:20:12;6.90;;;6.40;;
9294;SDS011;4686;44.496;11.324;2023-04-05T12:22:42;9.80;;;8.80;;
9294;SDS011;4686;44.496;11.324;2023-04-05T12:25:10;7.87;;;7.07;;
9294;SDS011;4686;44.496;11.324;2023-04-05T12:27:38;8.07;;;7.37;;
9294;SDS011;4686;44.496;11.324;2023-04-05T12:30:09;7.83;;;7.00;;
9294;SDS011;4686;44.496;11.324;2023-04-05T12:32:42;6.90;;;6.30;;
9294;SDS011;4686;44.496;11.324;2023-04-05T12:35:10;6.53;;;6.00;;
9294;SDS011;4686;44.496;11.324;2023-04-05T12:37:38;10.77;;;7.17;;
9294;SDS011;4686;44.496;11.324;2023-04-05T12:40:07;12.67;;;8.47;;
9294;SDS011;4686;44.496;11.324;2023-04-05T12:42:35;7.50;;;6.80;;
9294;SDS011;4686;44.496;11.324;2023-04-05T12:45:03;8.67;;;7.77;;
9294;SDS011;4686;44.496;11.324;2023-04-05T12:47:31;7.67;;;6.67;;
9294;SDS011;4686;44.496;11.324;2023-04-05T12:50:08;5.93;;;5.50;;
9294;SDS011;4686;44.496;11.324;2023-04-05T12:52:36;5.50;;;5.10;;
9294;SDS011;4686;44.496;11.324;2023-04-05T12:55:04;6.67;;;6.17;;
9294;SDS011;4686;44.496;11.324;2023-04-05T12:57:41;5.10;;;4.63;;
9294;SDS011;4686;44.496;11.324;2023-04-05T13:00:10;7.73;;;4.73;;
9294;SDS011;4686;44.496;11.324;2023-04-05T13:02:38;5.50;;;5.10;;
9294;SDS011;4686;44.496;11.324;2023-04-05T13:05:05;6.60;;;6.00;;
9294;SDS011;4686;44.496;11.324;2023-04-05T13:07:34;5.20;;;4.80;;
9294;SDS011;4686;44.496;11.324;2023-04-05T13:10:01;6.50;;;6.00;;
9294;SDS011;4686;44.496;11.324;2023-04-05T13:12:29;6.20;;;5.60;;
9294;SDS011;4686;44.496;11.324;2023-04-05T13:14:58;5.70;;;5.30;;
9294;SDS011;4686;44.496;11.324;2023-04-05T13:17:25;11.70;;;5.80;;
9294;SDS011;4686;44.496;11.324;2023-04-05T13:19:52;12.13;;;6.30;;
9294;SDS011;4686;44.496;11.324;2023-04-05T13:22:21;6.23;;;5.67;;
9294;SDS011;4686;44.496;11.324;2023-04-05T13:24:48;6.93;;;6.20;;
9294;SDS011;4686;44.496;11.324;2023-04-05T13:27:18;6.63;;;5.93;;
9294;SDS011;4686;44.496;11.324;2023-04-05T13:29:51;6.70;;;4.43;;
9294;SDS011;4686;44.496;11.324;2023-04-05T13:32:20;6.50;;;5.70;;
9294;SDS011;4686;44.496;11.324;2023-04-05T13:34:49;5.53;;;5.13;;
9294;SDS011;4686;44.496;11.324;2023-04-05T13:37:16;6.80;;;6.20;;
9294;SDS011;4686;44.496;11.324;2023-04-05T13:39:44;6.60;;;5.90;;
9294;SDS011;4686;44.496;11.324;2023-04-05T13:42:11;7.00;;;6.40;;
9294;SDS011;4686;44.496;11.324;2023-04-05T13:44:38;5.23;;;4.77;;
9294;SDS011;4686;44.496;11.324;2023-04-05T13:47:06;5.20;;;4.80;;
9294;SDS011;4686;44.496;11.324;2023-04-05T13:49:34;7.10;;;6.40;;
9294;SDS011;4686;44.496;11.324;2023-04-05T13:52:03;5.27;;;4.87;;
9294;SDS011;4686;44.496;11.324;2023-04-05T13:54:30;7.90;;;7.13;;
9294;SDS011;4686;44.496;11.324;2023-04-05T13:56:57;5.23;;;4.90;;
9294;SDS011;4686;44.496;11.324;2023-04-05T13:59:25;6.00;;;5.13;;
9294;SDS011;4686;44.496;11.324;2023-04-05T14:01:52;6.10;;;5.17;;
9294;SDS011;4686;44.496;11.324;2023-04-05T14:04:20;7.80;;;7.00;;
9294;SDS011;4686;44.496;11.324;2023-04-05T14:06:48;6.93;;;6.40;;
9294;SDS011;4686;44.496;11.324;2023-04-05T14:09:15;6.73;;;6.10;;
9294;SDS011;4686;44.496;11.324;2023-04-05T14:11:43;8.93;;;7.60;;
9294;SDS011;4686;44.496;11.324;2023-04-05T14:14:10;5.40;;;4.90;;
9294;SDS011;4686;44.496;11.324;2023-04-05T14:16:37;5.00;;;4.57;;
9294;SDS011;4686;44.496;11.324;2023-04-05T14:19:05;4.83;;;4.43;;
9294;SDS011;4686;44.496;11.324;2023-04-05T14:21:32;12.67;;;10.83;;
9294;SDS011;4686;44.496;11.324;2023-04-05T14:24:02;6.20;;;5.70;;
9294;SDS011;4686;44.496;11.324;2023-04-05T14:26:30;4.90;;;4.43;;
9294;SDS011;4686;44.496;11.324;2023-04-05T14:28:57;10.50;;;9.40;;
9294;SDS011;4686;44.496;11.324;2023-04-05T14:31:24;7.67;;;6.40;;
9294;SDS011;4686;44.496;11.324;2023-04-05T14:33:52;5.40;;;5.00;;
9294;SDS011;4686;44.496;11.324;2023-04-05T14:36:19;5.43;;;5.03;;
9294;SDS011;4686;44.496;11.324;2023-04-05T14:38:47;5.93;;;5.37;;
9294;SDS011;4686;44.496;11.324;2023-04-05T14:41:16;8.40;;;7.37;;
9294;SDS011;4686;44.496;11.324;2023-04-05T14:43:43;5.47;;;4.97;;
9294;SDS011;4686;44.496;11.324;2023-04-05T14:46:10;5.20;;;4.80;;
9294;SDS011;4686;44.496;11.324;2023-04-05T14:48:38;4.80;;;4.43;;
9294;SDS011;4686;44.496;11.324;2023-04-05T14:51:05;4.90;;;4.57;;
9294;SDS011;4686;44.496;11.324;2023-04-05T14:53:33;6.27;;;5.60;;
9294;SDS011;4686;44.496;11.324;2023-04-05T14:56:00;6.13;;;5.53;;
9294;SDS011;4686;44.496;11.324;2023-04-05T14:58:29;9.43;;;7.00;;
9294;SDS011;4686;44.496;11.324;2023-04-05T15:00:58;10.93;;;9.80;;
9294;SDS011;4686;44.496;11.324;2023-04-05T15:03:26;5.83;;;5.03;;
9294;SDS011;4686;44.496;11.324;2023-04-05T15:05:53;7.63;;;6.93;;
9294;SDS011;4686;44.496;11.324;2023-04-05T15:08:20;6.20;;;5.80;;
9294;SDS011;4686;44.496;11.324;2023-04-05T15:10:48;6.07;;;5.57;;
9294;SDS011;4686;44.496;11.324;2023-04-05T15:13:15;6.00;;;5.40;;